createdAt,value
2017-10-03T00:00:48.406Z,18.53
2017-10-03T00:03:16.446Z,18.55
2017-10-03T00:05:43.987Z,18.50
2017-10-03T00:08:11.638Z,18.45
2017-10-03T00:10:39.348Z,18.44
2017-10-03T00:13:06.933Z,18.46
2017-10-03T00:15:34.469Z,18.47
2017-10-03T00:18:02.022Z,18.53
2017-10-03T00:20:29.660Z,18.54
2017-10-03T00:22:57.806Z,18.44
2017-10-03T00:25:25.406Z,18.37
2017-10-03T00:27:52.897Z,18.39
2017-10-03T00:30:20.428Z,18.24
2017-10-03T00:32:47.923Z,18.25
2017-10-03T00:35:15.447Z,18.30
2017-10-03T00:37:43.054Z,18.32
2017-10-03T00:40:10.559Z,18.24
2017-10-03T00:42:38.188Z,18.14
2017-10-03T00:45:05.826Z,18.14
2017-10-03T00:47:33.461Z,18.27
2017-10-03T00:50:01.341Z,18.05
2017-10-03T00:52:28.895Z,18.08
2017-10-03T00:54:57.220Z,18.12
2017-10-03T00:57:24.758Z,17.98
2017-10-03T00:59:52.358Z,18.00
2017-10-03T01:02:20.032Z,18.08
2017-10-03T01:04:47.540Z,17.91
2017-10-03T01:07:15.075Z,17.90
2017-10-03T01:09:42.646Z,17.80
2017-10-03T01:14:43.809Z,17.87
2017-10-03T01:17:11.327Z,17.94
2017-10-03T01:19:38.830Z,17.86
2017-10-03T01:22:06.396Z,17.88
2017-10-03T01:24:33.913Z,17.78
2017-10-03T01:27:01.437Z,17.86
2017-10-03T01:29:28.977Z,17.79
2017-10-03T01:31:57.226Z,17.88
2017-10-03T01:34:24.727Z,17.96
2017-10-03T01:36:52.195Z,17.93
2017-10-03T01:39:19.695Z,17.82
2017-10-03T01:41:47.165Z,18.06
2017-10-03T01:44:14.808Z,18.05
2017-10-03T01:46:42.375Z,18.08
2017-10-03T01:49:10.004Z,18.10
2017-10-03T01:51:37.498Z,18.14
2017-10-03T01:54:04.959Z,18.18
2017-10-03T01:56:32.464Z,18.16
2017-10-03T01:59:00.059Z,17.83
2017-10-03T02:01:27.628Z,17.96
2017-10-03T02:03:55.200Z,17.98
2017-10-03T02:06:22.735Z,17.97
2017-10-03T02:08:50.268Z,17.99
2017-10-03T02:11:17.727Z,17.98
2017-10-03T02:13:45.232Z,17.87
2017-10-03T02:16:12.696Z,17.73
2017-10-03T02:18:40.215Z,17.82
2017-10-03T02:21:07.810Z,17.91
2017-10-03T02:23:35.323Z,17.93
2017-10-03T02:26:10.408Z,17.91
2017-10-03T02:28:37.996Z,17.92
2017-10-03T02:31:05.745Z,17.75
2017-10-03T02:33:33.309Z,17.72
2017-10-03T02:36:01.160Z,17.74
2017-10-03T02:38:29.012Z,17.68
2017-10-03T02:40:56.515Z,17.73
2017-10-03T02:43:24.029Z,17.68
2017-10-03T02:45:52.029Z,17.59
2017-10-03T02:48:19.651Z,17.64
2017-10-03T02:50:47.274Z,17.73
2017-10-03T02:53:14.880Z,17.69
2017-10-03T02:55:42.422Z,17.78
2017-10-03T02:58:10.578Z,17.61
2017-10-03T03:00:38.174Z,17.68
2017-10-03T03:03:05.744Z,17.71
2017-10-03T03:05:33.246Z,17.71
2017-10-03T03:08:05.650Z,17.76
2017-10-03T03:10:33.141Z,17.81
2017-10-03T03:13:00.671Z,17.87
2017-10-03T03:15:28.169Z,17.89
2017-10-03T03:17:55.652Z,17.78
2017-10-03T03:20:23.296Z,17.82
2017-10-03T03:22:50.900Z,17.86
2017-10-03T03:27:52.527Z,17.82
2017-10-03T03:30:20.025Z,17.71
2017-10-03T03:32:47.506Z,17.74
2017-10-03T03:35:14.966Z,17.78
2017-10-03T03:37:42.430Z,17.72
2017-10-03T03:40:10.442Z,17.68
2017-10-03T03:42:38.890Z,17.65
2017-10-03T03:45:06.392Z,17.50
2017-10-03T03:47:33.888Z,17.42
2017-10-03T03:50:01.349Z,17.32
2017-10-03T03:52:28.957Z,17.11
2017-10-03T03:54:56.680Z,16.95
2017-10-03T03:57:24.235Z,16.14
2017-10-03T03:59:51.739Z,15.66
2017-10-03T04:02:19.889Z,15.37
2017-10-03T04:04:47.367Z,15.10
2017-10-03T04:07:14.948Z,15.27
2017-10-03T04:09:43.215Z,15.12
2017-10-03T04:12:10.720Z,15.19
2017-10-03T04:14:39.067Z,15.19
2017-10-03T04:17:06.614Z,15.18
2017-10-03T04:19:34.128Z,15.16
2017-10-03T04:22:02.928Z,14.75
2017-10-03T04:24:30.402Z,15.19
2017-10-03T04:26:57.934Z,15.10
2017-10-03T04:29:26.577Z,15.05
2017-10-03T04:31:55.055Z,14.81
2017-10-03T04:34:22.639Z,14.79
2017-10-03T04:36:50.160Z,14.71
2017-10-03T04:39:17.781Z,14.67
2017-10-03T04:41:45.583Z,14.85
2017-10-03T04:44:13.195Z,14.68
2017-10-03T04:46:40.756Z,14.68
2017-10-03T04:49:08.329Z,14.45
2017-10-03T04:51:35.997Z,14.62
2017-10-03T04:54:03.532Z,14.14
2017-10-03T04:56:31.198Z,14.13
2017-10-03T04:58:59.301Z,14.04
2017-10-03T05:01:28.142Z,13.88
2017-10-03T05:03:55.682Z,13.73
2017-10-03T05:06:23.843Z,13.71
2017-10-03T05:08:51.327Z,13.75
2017-10-03T05:11:19.810Z,13.93
2017-10-03T05:13:47.342Z,13.75
2017-10-03T05:16:14.891Z,14.07
2017-10-03T05:18:42.666Z,14.28
2017-10-03T05:21:11.386Z,14.35
2017-10-03T05:23:39.042Z,14.31
2017-10-03T05:26:06.622Z,14.15
2017-10-03T05:28:34.266Z,13.96
2017-10-03T05:31:01.786Z,14.12
2017-10-03T05:33:29.310Z,14.40
2017-10-03T05:35:56.801Z,14.10
2017-10-03T05:38:24.319Z,13.88
2017-10-03T05:40:51.828Z,14.11
2017-10-03T05:43:19.309Z,14.25
2017-10-03T05:45:46.792Z,14.56
2017-10-03T05:48:14.261Z,14.68
2017-10-03T05:50:41.745Z,14.56
2017-10-03T05:53:09.213Z,14.64
2017-10-03T05:55:36.991Z,14.73
2017-10-03T05:58:04.559Z,14.65
2017-10-03T06:00:32.044Z,14.68
2017-10-03T06:02:59.669Z,14.36
2017-10-03T06:05:27.178Z,14.57
2017-10-03T06:07:54.678Z,14.54
2017-10-03T06:10:22.194Z,14.57
2017-10-03T06:12:49.697Z,14.57
2017-10-03T06:15:17.241Z,14.32
2017-10-03T06:17:44.725Z,14.37
2017-10-03T06:20:12.234Z,14.46
2017-10-03T06:22:39.748Z,14.65
2017-10-03T06:25:07.367Z,14.82
2017-10-03T06:27:34.897Z,14.23
2017-10-03T06:30:02.540Z,14.28
2017-10-03T06:32:30.136Z,14.40
2017-10-03T06:34:57.728Z,14.43
2017-10-03T06:37:25.223Z,14.43
2017-10-03T06:39:52.759Z,14.38
2017-10-03T06:42:20.249Z,14.63
2017-10-03T06:44:47.728Z,14.54
2017-10-03T06:47:15.317Z,14.51
2017-10-03T06:49:42.844Z,14.40
2017-10-03T06:52:10.376Z,14.49
2017-10-03T06:54:37.951Z,14.60
2017-10-03T06:57:05.488Z,14.71
2017-10-03T06:59:33.031Z,14.84
2017-10-03T07:02:01.362Z,14.73
2017-10-03T07:04:28.902Z,14.81
2017-10-03T07:06:56.453Z,14.91
2017-10-03T07:09:24.040Z,14.88
2017-10-03T07:11:51.599Z,14.88
2017-10-03T07:14:19.208Z,14.86
2017-10-03T07:16:46.748Z,14.82
2017-10-03T07:19:14.318Z,14.86
2017-10-03T07:21:41.920Z,14.55
2017-10-03T07:24:09.493Z,14.67
2017-10-03T07:26:37.034Z,14.53
2017-10-03T07:29:04.680Z,14.68
2017-10-03T07:31:32.155Z,14.64
2017-10-03T07:33:59.674Z,14.70
2017-10-03T07:36:27.161Z,14.82
2017-10-03T07:38:55.296Z,14.87
2017-10-03T07:41:22.751Z,14.63
2017-10-03T07:43:50.276Z,14.58
2017-10-03T07:46:17.855Z,14.21
2017-10-03T07:48:45.619Z,14.20
2017-10-03T07:51:13.123Z,14.36
2017-10-03T07:53:40.617Z,14.27
2017-10-03T07:56:08.107Z,14.18
2017-10-03T07:58:35.638Z,14.35
2017-10-03T08:01:03.179Z,14.06
2017-10-03T08:03:30.750Z,14.14
2017-10-03T08:05:58.389Z,14.01
2017-10-03T08:08:25.949Z,14.03
2017-10-03T08:10:53.449Z,13.98
2017-10-03T08:13:21.099Z,14.07
2017-10-03T08:15:48.715Z,14.11
2017-10-03T08:18:16.852Z,14.20
2017-10-03T08:20:44.418Z,14.12
2017-10-03T08:23:11.966Z,14.41
2017-10-03T08:25:41.240Z,14.17
2017-10-03T08:28:08.866Z,14.26
2017-10-03T08:30:36.525Z,14.30
2017-10-03T08:33:04.221Z,14.62
2017-10-03T08:35:31.756Z,14.60
2017-10-03T08:37:59.298Z,14.73
2017-10-03T08:40:26.892Z,15.01
2017-10-03T08:42:54.485Z,14.80
2017-10-03T08:45:22.001Z,14.67
2017-10-03T08:47:49.517Z,14.56
2017-10-03T08:50:17.088Z,14.68
2017-10-03T08:52:44.595Z,14.36
2017-10-03T08:55:12.151Z,14.44
2017-10-03T08:57:39.727Z,14.67
2017-10-03T09:00:07.425Z,14.70
2017-10-03T09:02:35.082Z,15.44
2017-10-03T09:05:02.666Z,18.61
2017-10-03T09:07:30.242Z,21.04
2017-10-03T09:09:57.748Z,20.29
2017-10-03T09:12:25.359Z,22.19
2017-10-03T09:14:53.126Z,24.02
2017-10-03T09:17:20.609Z,25.97
2017-10-03T09:19:48.083Z,26.74
2017-10-03T09:22:15.610Z,25.73
2017-10-03T09:24:43.116Z,25.67
2017-10-03T09:27:10.587Z,26.32
2017-10-03T09:29:38.087Z,26.43
2017-10-03T09:32:05.556Z,26.79
2017-10-03T09:34:33.030Z,28.27
2017-10-03T09:37:00.521Z,26.97
2017-10-03T09:39:28.041Z,25.31
2017-10-03T09:41:55.508Z,23.25
2017-10-03T09:44:23.973Z,23.25
2017-10-03T09:46:51.497Z,21.90
2017-10-03T09:49:18.992Z,21.14
2017-10-03T09:51:47.439Z,20.67
2017-10-03T09:54:15.162Z,19.98
2017-10-03T09:56:46.846Z,19.40
2017-10-03T09:59:14.342Z,20.21
2017-10-03T10:01:41.868Z,22.23
2017-10-03T10:04:09.683Z,23.80
2017-10-03T10:06:38.092Z,23.87
2017-10-03T10:09:05.583Z,23.36
2017-10-03T10:11:33.051Z,22.72
2017-10-03T10:14:00.556Z,24.93
2017-10-03T10:16:28.021Z,23.68
2017-10-03T10:18:55.515Z,23.72
2017-10-03T10:21:23.233Z,24.40
2017-10-03T10:23:50.732Z,26.22
2017-10-03T10:26:18.265Z,27.67
2017-10-03T10:28:45.804Z,27.73
2017-10-03T10:31:13.313Z,28.78
2017-10-03T10:33:40.773Z,29.18
2017-10-03T10:36:08.267Z,30.01
2017-10-03T10:38:35.728Z,29.56
2017-10-03T10:41:03.228Z,29.43
2017-10-03T10:43:30.808Z,27.17
2017-10-03T10:45:58.300Z,27.55
2017-10-03T10:48:25.836Z,29.67
2017-10-03T10:50:53.398Z,30.55
2017-10-03T10:53:21.248Z,31.08
2017-10-03T10:55:48.783Z,31.10
2017-10-03T10:58:16.247Z,32.15
2017-10-03T11:00:43.751Z,30.65
2017-10-03T11:03:11.211Z,28.04
2017-10-03T11:05:38.925Z,27.66
2017-10-03T11:08:06.448Z,29.60
2017-10-03T11:10:33.919Z,30.55
2017-10-03T11:13:01.418Z,30.23
2017-10-03T11:15:28.895Z,30.99
2017-10-03T11:17:56.518Z,31.70
2017-10-03T11:20:24.344Z,32.15
2017-10-03T11:23:03.586Z,34.29
2017-10-03T11:25:31.732Z,33.43
2017-10-03T11:27:59.259Z,32.82
2017-10-03T11:30:26.753Z,31.78
2017-10-03T11:32:54.225Z,30.72
2017-10-03T11:35:21.741Z,31.35
2017-10-03T11:37:49.289Z,31.23
2017-10-03T11:40:16.859Z,33.49
2017-10-03T11:42:44.467Z,31.20
2017-10-03T11:45:12.010Z,29.95
2017-10-03T11:47:39.513Z,31.27
2017-10-03T11:50:07.026Z,31.72
2017-10-03T11:52:36.727Z,30.36
2017-10-03T11:55:04.293Z,29.39
2017-10-03T11:57:31.849Z,29.25
2017-10-03T11:59:59.442Z,27.44
2017-10-03T12:02:27.014Z,26.12
2017-10-03T12:04:54.569Z,26.28
2017-10-03T12:07:22.072Z,24.87
2017-10-03T12:09:49.682Z,26.35
2017-10-03T12:12:17.420Z,25.93
2017-10-03T12:14:44.940Z,24.84
2017-10-03T12:17:12.462Z,25.46
2017-10-03T12:19:39.994Z,25.47
2017-10-03T12:22:08.256Z,24.83
2017-10-03T12:24:35.749Z,24.31
2017-10-03T12:27:03.273Z,23.98
2017-10-03T12:29:30.762Z,23.72
2017-10-03T12:31:58.289Z,23.82
2017-10-03T12:34:25.779Z,23.49
2017-10-03T12:36:53.260Z,23.10
2017-10-03T12:39:21.192Z,21.78
2017-10-03T12:41:49.929Z,21.36
2017-10-03T12:44:21.372Z,23.62
2017-10-03T12:46:48.926Z,25.00
2017-10-03T12:49:16.417Z,26.69
2017-10-03T12:51:44.815Z,27.04
2017-10-03T12:54:13.498Z,26.94
2017-10-03T12:56:42.058Z,27.19
2017-10-03T12:59:13.608Z,26.97
2017-10-03T13:01:42.348Z,26.73
2017-10-03T13:04:10.984Z,26.16
2017-10-03T13:06:38.533Z,25.80
2017-10-03T13:09:06.698Z,25.48
2017-10-03T13:11:34.762Z,25.56
2017-10-03T13:14:05.612Z,25.10
2017-10-03T13:16:34.009Z,24.60
2017-10-03T13:19:04.462Z,23.65
2017-10-03T13:21:35.655Z,23.35
2017-10-03T13:24:03.173Z,23.14
2017-10-03T13:26:30.723Z,22.28
2017-10-03T13:28:58.352Z,21.98
2017-10-03T13:31:31.221Z,21.22
2017-10-03T13:33:59.930Z,21.56
2017-10-03T13:36:27.626Z,21.09
2017-10-03T13:38:55.546Z,21.32
2017-10-03T13:41:23.117Z,20.95
2017-10-03T13:43:50.716Z,20.86
2017-10-03T13:46:18.333Z,21.17
2017-10-03T13:48:46.325Z,20.94
2017-10-03T13:51:13.884Z,22.17
2017-10-03T13:53:41.901Z,22.80
2017-10-03T13:56:09.487Z,23.31
2017-10-03T13:58:37.236Z,23.42
2017-10-03T14:01:05.656Z,23.20
2017-10-03T14:03:35.552Z,22.89
2017-10-03T14:06:04.532Z,23.19
2017-10-03T14:08:32.197Z,22.25
2017-10-03T14:11:00.121Z,22.16
2017-10-03T14:13:27.742Z,21.61
2017-10-03T14:16:00.388Z,21.11
2017-10-03T14:18:28.893Z,21.02
2017-10-03T14:20:56.491Z,21.04
2017-10-03T14:23:24.070Z,21.30
2017-10-03T14:25:51.630Z,21.18
2017-10-03T14:28:19.165Z,21.17
2017-10-03T14:30:46.661Z,21.58
2017-10-03T14:33:14.820Z,21.17
2017-10-03T14:35:42.321Z,21.35
2017-10-03T14:38:10.292Z,21.30
2017-10-03T14:40:37.827Z,21.71
2017-10-03T14:43:06.995Z,21.77
2017-10-03T14:45:35.713Z,21.84
2017-10-03T14:48:04.476Z,21.68
2017-10-03T14:50:35.056Z,21.88
2017-10-03T14:53:02.563Z,22.71
2017-10-03T14:55:30.752Z,22.35
2017-10-03T14:57:58.464Z,21.50
2017-10-03T15:00:26.035Z,21.38
2017-10-03T15:02:53.552Z,21.14
2017-10-03T15:05:25.403Z,21.00
2017-10-03T15:07:53.874Z,20.93
2017-10-03T15:10:21.462Z,20.82
2017-10-03T15:12:48.982Z,20.35
2017-10-03T15:15:18.299Z,20.01
2017-10-03T15:17:48.032Z,19.73
2017-10-03T15:20:15.649Z,19.68
2017-10-03T15:22:43.130Z,19.60
2017-10-03T15:25:11.118Z,19.63
2017-10-03T15:27:42.240Z,19.26
2017-10-03T15:30:09.758Z,19.46
2017-10-03T15:32:37.276Z,19.44
2017-10-03T15:35:05.854Z,19.26
2017-10-03T15:37:33.461Z,19.40
2017-10-03T15:40:02.303Z,19.11
2017-10-03T15:42:31.461Z,19.38
2017-10-03T15:44:58.958Z,19.11
2017-10-03T15:47:27.721Z,19.10
2017-10-03T15:49:55.279Z,19.07
2017-10-03T15:52:22.966Z,19.23
2017-10-03T15:54:50.761Z,19.10
2017-10-03T15:57:18.281Z,18.90
2017-10-03T15:59:45.788Z,19.09
2017-10-03T16:02:13.299Z,19.03
2017-10-03T16:04:40.799Z,19.00
2017-10-03T16:07:08.419Z,18.95
2017-10-03T16:09:35.926Z,18.98
2017-10-03T16:12:03.453Z,18.89
2017-10-03T16:14:30.988Z,18.86
2017-10-03T16:16:58.494Z,18.89
2017-10-03T16:19:26.465Z,18.34
2017-10-03T16:21:55.000Z,18.36
2017-10-03T16:24:22.551Z,18.32
2017-10-03T16:26:50.167Z,18.28
2017-10-03T16:29:17.670Z,18.02
2017-10-03T16:31:45.295Z,18.18
2017-10-03T16:34:12.859Z,17.98
2017-10-03T16:36:40.423Z,17.89
2017-10-03T16:39:09.157Z,17.90
2017-10-03T16:41:36.842Z,17.79
2017-10-03T16:44:04.354Z,17.67
2017-10-03T16:46:36.115Z,17.64
2017-10-03T16:49:03.609Z,17.77
2017-10-03T16:51:31.139Z,17.48
2017-10-03T16:53:58.683Z,17.48
2017-10-03T16:56:26.202Z,17.65
2017-10-03T16:58:54.052Z,17.56
2017-10-03T17:01:21.544Z,17.60
2017-10-03T17:03:49.026Z,17.45
2017-10-03T17:06:16.548Z,17.47
2017-10-03T17:08:44.165Z,17.46
2017-10-03T17:11:13.346Z,17.01
2017-10-03T17:13:46.610Z,16.94
2017-10-03T17:16:14.220Z,17.08
2017-10-03T17:18:43.168Z,17.07
2017-10-03T17:21:11.748Z,17.04
2017-10-03T17:23:39.241Z,16.92
2017-10-03T17:26:06.757Z,17.07
2017-10-03T17:28:34.720Z,16.50
2017-10-03T17:31:02.263Z,16.13
2017-10-03T17:33:29.788Z,16.26
2017-10-03T17:35:57.288Z,16.12
2017-10-03T17:38:24.837Z,16.35
2017-10-03T17:40:52.437Z,16.40
2017-10-03T17:43:20.762Z,16.10
2017-10-03T17:45:48.445Z,16.16
2017-10-03T17:48:16.045Z,16.01
2017-10-03T17:50:43.549Z,16.06
2017-10-03T17:53:11.509Z,16.05
2017-10-03T17:55:43.252Z,15.94
2017-10-03T17:58:10.824Z,15.65
2017-10-03T18:00:38.386Z,15.75
2017-10-03T18:03:06.262Z,15.62
2017-10-03T18:05:34.649Z,15.34
2017-10-03T18:08:02.276Z,15.57
2017-10-03T18:10:29.888Z,15.66
2017-10-03T18:12:57.505Z,15.45
2017-10-03T18:15:25.054Z,15.15
2017-10-03T18:17:52.656Z,15.05
2017-10-03T18:20:20.203Z,15.06
2017-10-03T18:22:47.780Z,15.08
2017-10-03T18:25:15.387Z,14.93
2017-10-03T18:27:42.933Z,15.34
2017-10-03T18:30:10.526Z,15.35
2017-10-03T18:32:38.124Z,15.22
2017-10-03T18:35:05.650Z,15.28
2017-10-03T18:37:33.221Z,15.32
2017-10-03T18:40:00.905Z,15.38
2017-10-03T18:42:29.105Z,15.27
2017-10-03T18:44:56.766Z,15.24
2017-10-03T18:47:25.294Z,15.00
2017-10-03T18:49:52.867Z,15.10
2017-10-03T18:52:20.376Z,15.17
2017-10-03T18:54:47.918Z,14.99
2017-10-03T18:57:15.435Z,15.00
2017-10-03T18:59:43.074Z,15.02
2017-10-03T19:02:10.633Z,15.07
2017-10-03T19:04:38.135Z,15.07
2017-10-03T19:07:05.731Z,15.16
2017-10-03T19:09:33.244Z,15.19
2017-10-03T19:12:00.781Z,14.98
2017-10-03T19:14:28.297Z,15.16
2017-10-03T19:16:55.832Z,15.14
2017-10-03T19:19:23.391Z,15.10
2017-10-03T19:21:50.903Z,15.04
2017-10-03T19:24:18.853Z,15.03
2017-10-03T19:26:46.337Z,14.99
2017-10-03T19:29:13.963Z,14.93
2017-10-03T19:31:41.497Z,14.95
2017-10-03T19:34:09.016Z,14.89
2017-10-03T19:36:37.125Z,14.88
2017-10-03T19:39:04.723Z,14.67
2017-10-03T19:41:32.226Z,14.51
2017-10-03T19:43:59.790Z,14.42
2017-10-03T19:46:27.763Z,14.34
2017-10-03T19:48:55.335Z,14.40
2017-10-03T19:51:22.880Z,14.46
2017-10-03T19:53:50.507Z,14.49
2017-10-03T19:56:19.048Z,14.48
2017-10-03T19:58:46.627Z,14.38
2017-10-03T20:01:14.320Z,14.37
2017-10-03T20:03:41.903Z,14.39
2017-10-03T20:06:09.528Z,14.29
2017-10-03T20:08:37.143Z,14.30
2017-10-03T20:11:04.678Z,14.22
2017-10-03T20:13:32.272Z,14.20
2017-10-03T20:16:00.267Z,14.25
2017-10-03T20:18:28.831Z,14.19
2017-10-03T20:20:56.485Z,14.17
2017-10-03T20:23:24.090Z,14.12
2017-10-03T20:25:52.055Z,14.17
2017-10-03T20:28:19.637Z,14.11
2017-10-03T20:33:21.051Z,14.08
2017-10-03T20:35:48.606Z,14.08
2017-10-03T20:38:16.137Z,13.91
2017-10-03T20:40:43.700Z,13.82
2017-10-03T20:43:11.238Z,13.82
2017-10-03T20:45:38.943Z,13.82
2017-10-03T20:48:06.509Z,13.88
2017-10-03T20:50:34.048Z,13.87
2017-10-03T20:53:01.824Z,13.87
2017-10-03T20:55:29.445Z,13.77
2017-10-03T20:57:57.003Z,13.79
2017-10-03T21:00:24.601Z,13.76
2017-10-03T21:02:52.336Z,13.76
2017-10-03T21:05:19.941Z,13.72
2017-10-03T21:07:47.789Z,13.64
2017-10-03T21:10:15.603Z,13.58
2017-10-03T21:12:43.407Z,13.49
2017-10-03T21:15:11.111Z,13.48
2017-10-03T21:17:38.655Z,13.37
2017-10-03T21:20:06.477Z,13.23
2017-10-03T21:22:34.242Z,13.22
2017-10-03T21:25:01.817Z,13.25
2017-10-03T21:27:29.423Z,13.25
2017-10-03T21:29:57.063Z,13.21
2017-10-03T21:32:24.716Z,13.21
2017-10-03T21:34:52.331Z,13.16
2017-10-03T21:37:20.174Z,13.14
2017-10-03T21:39:47.993Z,13.17
2017-10-03T21:42:27.490Z,13.21
2017-10-03T21:44:55.089Z,13.10
2017-10-03T21:47:23.545Z,12.99
2017-10-03T21:49:51.364Z,12.90
2017-10-03T21:52:18.879Z,12.89
2017-10-03T21:54:46.546Z,12.81
2017-10-03T21:57:14.396Z,12.59
2017-10-03T21:59:42.091Z,12.32
2017-10-03T22:02:10.128Z,12.28
2017-10-03T22:04:38.285Z,12.24
2017-10-03T22:07:06.328Z,12.24
2017-10-03T22:09:34.587Z,12.21
2017-10-03T22:12:02.397Z,12.21
2017-10-03T22:14:29.974Z,12.19
2017-10-03T22:16:57.522Z,12.27
2017-10-03T22:19:25.249Z,12.30
2017-10-03T22:21:52.831Z,12.37
2017-10-03T22:24:20.404Z,12.41
2017-10-03T22:26:48.096Z,12.53
2017-10-03T22:31:49.834Z,12.44
